Time;durP1;ratioP1;P1;durP2;ratioP2;P2;SDS_P1;SDS_P2;PMS_P1;PMS_P2;Temp;Humidity;BMP_temperature;BMP_pressure;BME280_temperature;BME280_humidity;BME280_pressure;Samples;Min_cycle;Max_cycle;Signal;HPM_P1;HPM_P2
2023/09/28 00:01:58;;;;;;;;;;;20.30;71.50;;;;;;5091464;28;19924;-69
2023/09/28 00:04:24;;;;;;;;;;;20.30;71.50;;;;;;5109656;28;19998;-69
2023/09/28 00:06:50;;;;;;;;;;;20.30;71.50;;;;;;5108559;28;20446;-69
2023/09/28 00:09:16;;;;;;;;;;;20.30;71.50;;;;;;5108345;28;19920;-69
2023/09/28 00:11:42;;;;;;;;;;;20.30;71.50;;;;;;5108396;28;20387;-69
2023/09/28 00:14:07;;;;;;;;;;;20.30;71.50;;;;;;5109642;28;19920;-69
2023/09/28 00:16:33;;;;;;;;;;;20.30;71.50;;;;;;5108109;28;19919;-69
2023/09/28 00:18:59;;;;;;;;;;;20.30;71.50;;;;;;5108083;28;19920;-69
2023/09/28 00:21:25;;;;;;;;;;;20.30;71.40;;;;;;5108394;28;19920;-69
2023/09/28 00:23:52;;;;;;;;;;;20.20;71.40;;;;;;5108002;28;19924;-67
2023/09/28 00:26:19;;;;;;;;;;;20.30;71.50;;;;;;5109327;28;19920;-67
2023/09/28 00:28:45;;;;;;;;;;;20.30;71.50;;;;;;5108240;28;19924;-67
2023/09/28 00:31:10;;;;;;;;;;;20.30;71.50;;;;;;5121665;28;19927;-67
2023/09/28 00:33:36;;;;;;;;;;;20.30;71.40;;;;;;5129576;28;19920;-67
2023/09/28 00:36:01;;;;;;;;;;;20.20;71.40;;;;;;5145542;27;19963;-67
2023/09/28 00:38:27;;;;;;;;;;;20.30;71.40;;;;;;5129381;28;19920;-67
2023/09/28 00:40:52;;;;;;;;;;;20.30;71.50;;;;;;5129958;28;19924;-67
2023/09/28 00:43:34;;;;;;;;;;;20.30;71.50;;;;;;5115646;28;19926;-67
2023/09/28 00:46:00;;;;;;;;;;;20.20;71.40;;;;;;5115707;28;19972;-67
2023/09/28 00:48:26;;;;;;;;;;;20.20;71.40;;;;;;5131412;27;19920;-67
2023/09/28 00:50:54;;;;;;;;;;;20.20;71.40;;;;;;5097376;28;20369;-67
2023/09/28 00:53:21;;;;;;;;;;;20.30;71.40;;;;;;5097168;28;20393;-67
2023/09/28 00:55:47;;;;;;;;;;;20.30;71.40;;;;;;5097511;28;19926;-67
2023/09/28 00:58:12;;;;;;;;;;;20.30;71.40;;;;;;5097217;28;19920;-67
2023/09/28 01:00:40;;;;;;;;;;;20.30;71.40;;;;;;5115266;28;19924;-67
2023/09/28 01:03:06;;;;;;;;;;;20.20;71.40;;;;;;5097415;28;19927;-67
2023/09/28 01:05:33;;;;;;;;;;;20.20;71.40;;;;;;5096953;28;20371;-67
2023/09/28 01:08:18;;;;;;;;;;;20.20;71.40;;;;;;5131132;27;19919;-67
2023/09/28 01:10:44;;;;;;;;;;;20.20;71.40;;;;;;5097225;28;20018;-67
2023/09/28 01:13:11;;;;;;;;;;;20.20;71.40;;;;;;5096897;28;19919;-67
2023/09/28 01:15:37;;;;;;;;;;;20.30;71.40;;;;;;5115125;28;19942;-67
2023/09/28 01:18:03;;;;;;;;;;;20.20;71.30;;;;;;5096558;28;20041;-67
2023/09/28 01:20:36;;;;;;;;;;;20.20;71.30;;;;;;5096442;28;19973;-67
2023/09/28 01:23:03;;;;;;;;;;;20.20;71.40;;;;;;5115060;28;19973;-67
2023/09/28 01:25:28;;;;;;;;;;;20.30;71.40;;;;;;5096925;28;19920;-67
2023/09/28 01:27:54;;;;;;;;;;;20.20;71.30;;;;;;5096897;28;19923;-67
2023/09/28 01:30:20;;;;;;;;;;;20.20;71.30;;;;;;5096616;28;20048;-67
2023/09/28 01:32:46;;;;;;;;;;;20.20;71.30;;;;;;5096794;28;19920;-67
2023/09/28 01:35:11;;;;;;;;;;;20.20;71.30;;;;;;5114535;28;19927;-67
2023/09/28 01:40:21;;;;;;;;;;;20.20;71.30;;;;;;5110235;27;19912;-67
2023/09/28 01:42:47;;;;;;;;;;;20.20;71.30;;;;;;5108979;28;20390;-67
2023/09/28 01:45:12;;;;;;;;;;;20.20;71.30;;;;;;5108875;28;19976;-67
2023/09/28 01:47:38;;;;;;;;;;;20.20;71.30;;;;;;5109073;28;19963;-67
2023/09/28 01:50:04;;;;;;;;;;;20.20;71.30;;;;;;5109089;28;19923;-67
2023/09/28 01:52:30;;;;;;;;;;;20.20;71.20;;;;;;5109008;28;19985;-67
2023/09/28 01:54:55;;;;;;;;;;;20.20;71.30;;;;;;5109123;28;20435;-67
2023/09/28 01:57:21;;;;;;;;;;;20.20;71.30;;;;;;5110046;28;19919;-67
2023/09/28 01:59:47;;;;;;;;;;;20.20;71.30;;;;;;5108578;28;19924;-67
2023/09/28 02:02:12;;;;;;;;;;;20.20;71.30;;;;;;5109828;28;20425;-67
2023/09/28 02:04:38;;;;;;;;;;;20.20;71.20;;;;;;5108701;28;19959;-67
2023/09/28 02:07:04;;;;;;;;;;;20.20;71.20;;;;;;5143181;27;20014;-67
2023/09/28 02:09:30;;;;;;;;;;;20.20;71.30;;;;;;5109823;28;20280;-67
2023/09/28 02:11:56;;;;;;;;;;;20.20;71.20;;;;;;5109640;28;19927;-70
2023/09/28 02:14:22;;;;;;;;;;;20.20;71.20;;;;;;5108763;28;19920;-67
2023/09/28 02:16:50;;;;;;;;;;;20.20;71.20;;;;;;5108213;28;20382;-67
2023/09/28 02:19:16;;;;;;;;;;;20.20;71.20;;;;;;5108312;28;19939;-67
2023/09/28 02:21:42;;;;;;;;;;;20.20;71.20;;;;;;5109718;28;20336;-67
2023/09/28 02:24:08;;;;;;;;;;;20.20;71.20;;;;;;5108260;28;20014;-67
2023/09/28 02:26:34;;;;;;;;;;;20.20;71.20;;;;;;5109398;28;20018;-67
2023/09/28 02:28:59;;;;;;;;;;;20.20;71.20;;;;;;5108419;28;19989;-67
2023/09/28 02:31:25;;;;;;;;;;;20.20;71.20;;;;;;5108327;28;19973;-67
2023/09/28 02:33:51;;;;;;;;;;;20.20;71.10;;;;;;5107944;28;19924;-67
2023/09/28 02:36:16;;;;;;;;;;;20.20;71.20;;;;;;5108338;28;20335;-67
2023/09/28 02:38:43;;;;;;;;;;;20.20;71.20;;;;;;5107724;28;19924;-67
2023/09/28 02:41:16;;;;;;;;;;;20.20;71.20;;;;;;5108177;28;19920;-67
2023/09/28 02:43:42;;;;;;;;;;;20.20;71.20;;;;;;5107777;28;19963;-66
2023/09/28 02:46:08;;;;;;;;;;;20.20;71.10;;;;;;5108104;28;19971;-67
2023/09/28 02:48:34;;;;;;;;;;;20.20;71.10;;;;;;5107942;28;19970;-67
2023/09/28 02:51:02;;;;;;;;;;;20.20;71.20;;;;;;5098211;28;19943;-67
2023/09/28 02:53:27;;;;;;;;;;;20.20;71.20;;;;;;5095314;28;19920;-67
2023/09/28 02:55:53;;;;;;;;;;;20.20;71.10;;;;;;5095472;28;20014;-67
2023/09/28 02:58:21;;;;;;;;;;;20.20;71.10;;;;;;5094105;28;19978;-67
2023/09/28 03:00:47;;;;;;;;;;;20.20;71.10;;;;;;5095153;28;19920;-67
2023/09/28 03:03:16;;;;;;;;;;;20.10;71.00;;;;;;5093834;28;20014;-67
2023/09/28 03:05:41;;;;;;;;;;;20.20;71.10;;;;;;5094129;28;19920;-67
2023/09/28 03:08:09;;;;;;;;;;;20.10;71.10;;;;;;5093190;28;20413;-67
2023/09/28 03:10:41;;;;;;;;;;;20.30;71.20;;;;;;5077350;28;20068;-67
2023/09/28 03:13:08;;;;;;;;;;;20.50;70.80;;;;;;5093614;28;19931;-67
2023/09/28 03:15:33;;;;;;;;;;;20.50;70.30;;;;;;5094971;28;19924;-67
2023/09/28 03:17:59;;;;;;;;;;;20.60;70.00;;;;;;5093317;28;19927;-67
2023/09/28 03:20:25;;;;;;;;;;;20.70;69.80;;;;;;5094862;28;20393;-67
2023/09/28 03:22:52;;;;;;;;;;;20.80;69.50;;;;;;5094024;28;19920;-67
2023/09/28 03:25:20;;;;;;;;;;;20.90;69.20;;;;;;5093707;28;19920;-69
2023/09/28 03:27:47;;;;;;;;;;;21.00;68.90;;;;;;5093415;28;19920;-66
2023/09/28 03:30:14;;;;;;;;;;;21.10;68.70;;;;;;5093855;28;19924;-69
2023/09/28 03:32:39;;;;;;;;;;;21.20;68.40;;;;;;5093269;28;19958;-67
2023/09/28 03:35:07;;;;;;;;;;;21.20;68.10;;;;;;5093550;28;19959;-67
2023/09/28 03:37:33;;;;;;;;;;;21.30;68.00;;;;;;5093262;28;19924;-66
2023/09/28 03:40:00;;;;;;;;;;;21.30;67.90;;;;;;5092841;28;20272;-67
2023/09/28 03:42:26;;;;;;;;;;;21.40;67.70;;;;;;5093091;28;19920;-67
2023/09/28 03:44:52;;;;;;;;;;;21.40;67.50;;;;;;5094380;28;20384;-67
2023/09/28 03:47:18;;;;;;;;;;;21.40;67.50;;;;;;5092898;28;19945;-67
2023/09/28 03:49:44;;;;;;;;;;;21.40;67.30;;;;;;5094109;28;19920;-66
2023/09/28 03:52:10;;;;;;;;;;;21.40;67.30;;;;;;5093295;28;20253;-67
2023/09/28 03:54:35;;;;;;;;;;;21.50;67.30;;;;;;5094093;28;19926;-67
2023/09/28 03:57:01;;;;;;;;;;;21.40;67.20;;;;;;5093193;28;19920;-67
2023/09/28 03:59:27;;;;;;;;;;;21.40;67.20;;;;;;5092630;28;19924;-67
2023/09/28 04:01:53;;;;;;;;;;;21.40;67.30;;;;;;5091771;28;20014;-67
2023/09/28 04:04:19;;;;;;;;;;;21.40;67.30;;;;;;5092652;28;19981;-67
2023/09/28 04:06:45;;;;;;;;;;;21.40;67.30;;;;;;5092487;28;20379;-67
2023/09/28 04:09:11;;;;;;;;;;;21.40;67.30;;;;;;5092642;28;19920;-67
2023/09/28 04:11:37;;;;;;;;;;;21.30;67.30;;;;;;5093979;28;19920;-67
2023/09/28 04:14:02;;;;;;;;;;;21.30;67.40;;;;;;5092792;28;19927;-67
2023/09/28 04:16:28;;;;;;;;;;;21.30;67.40;;;;;;5092610;28;19928;-67
2023/09/28 04:18:54;;;;;;;;;;;21.30;67.50;;;;;;5092281;28;20383;-67
2023/09/28 04:21:19;;;;;;;;;;;21.30;67.50;;;;;;5092370;28;20209;-67
2023/09/28 04:23:45;;;;;;;;;;;21.30;67.50;;;;;;5093516;28;19920;-66
2023/09/28 04:26:10;;;;;;;;;;;21.30;67.40;;;;;;5092449;28;19920;-67
2023/09/28 04:28:36;;;;;;;;;;;21.30;67.40;;;;;;5092161;28;20271;-67
2023/09/28 04:31:01;;;;;;;;;;;21.30;67.40;;;;;;5092430;28;19924;-67
2023/09/28 04:33:27;;;;;;;;;;;21.20;67.40;;;;;;5093405;28;19927;-67
2023/09/28 04:35:53;;;;;;;;;;;21.30;67.40;;;;;;5092199;28;19924;-66
2023/09/28 04:38:19;;;;;;;;;;;21.20;67.40;;;;;;5091914;28;19924;-67
2023/09/28 04:40:45;;;;;;;;;;;21.20;67.40;;;;;;5091863;28;20291;-67
2023/09/28 04:43:10;;;;;;;;;;;21.20;67.40;;;;;;5092339;28;20006;-66
2023/09/28 04:45:36;;;;;;;;;;;21.20;67.40;;;;;;5093160;28;19924;-67
2023/09/28 04:48:01;;;;;;;;;;;21.20;67.40;;;;;;5091823;28;19920;-68
2023/09/28 04:50:27;;;;;;;;;;;21.20;67.40;;;;;;5093027;28;19920;-67
2023/09/28 04:52:54;;;;;;;;;;;21.20;67.40;;;;;;5091775;28;20383;-67
2023/09/28 04:55:20;;;;;;;;;;;21.30;67.50;;;;;;5092054;28;19973;-67
2023/09/28 04:57:45;;;;;;;;;;;21.20;67.40;;;;;;5092875;28;20264;-67
2023/09/28 05:00:15;;;;;;;;;;;21.20;67.40;;;;;;5093335;28;20361;-66
2023/09/28 05:02:42;;;;;;;;;;;21.20;67.40;;;;;;5091845;28;19927;-67
2023/09/28 05:05:08;;;;;;;;;;;21.20;67.40;;;;;;5092835;28;20034;-67
2023/09/28 05:07:33;;;;;;;;;;;21.30;67.40;;;;;;5093068;28;19967;-66
2023/09/28 05:09:59;;;;;;;;;;;21.20;67.30;;;;;;5091526;28;19927;-67
2023/09/28 05:12:24;;;;;;;;;;;21.20;67.30;;;;;;5091651;28;20033;-67
2023/09/28 05:14:49;;;;;;;;;;;21.20;67.40;;;;;;5091167;28;20287;-67
2023/09/28 05:17:15;;;;;;;;;;;21.20;67.40;;;;;;5091548;28;20065;-67
2023/09/28 05:19:41;;;;;;;;;;;21.20;67.40;;;;;;5091240;28;19924;-67
2023/09/28 05:22:07;;;;;;;;;;;21.20;67.40;;;;;;5091533;28;19959;-67
2023/09/28 05:24:32;;;;;;;;;;;21.20;67.40;;;;;;5091314;28;20006;-67
2023/09/28 05:26:58;;;;;;;;;;;21.20;67.40;;;;;;5092271;28;20046;-67
2023/09/28 05:29:24;;;;;;;;;;;21.20;67.40;;;;;;5091270;28;19920;-67
2023/09/28 05:31:49;;;;;;;;;;;21.10;67.40;;;;;;5092509;28;20383;-67
2023/09/28 05:34:15;;;;;;;;;;;21.20;67.40;;;;;;5090566;28;19920;-67
2023/09/28 05:36:40;;;;;;;;;;;21.20;67.50;;;;;;5092345;28;20283;-67
2023/09/28 05:39:08;;;;;;;;;;;21.10;67.40;;;;;;5090811;28;20272;-67
2023/09/28 05:41:33;;;;;;;;;;;21.20;67.50;;;;;;5091047;28;19939;-67
2023/09/28 05:43:59;;;;;;;;;;;21.20;67.40;;;;;;5092398;28;19920;-67
2023/09/28 05:46:25;;;;;;;;;;;21.20;67.40;;;;;;5091403;28;19943;-68
2023/09/28 05:48:50;;;;;;;;;;;21.20;67.40;;;;;;5090821;28;19924;-68
2023/09/28 05:51:16;;;;;;;;;;;21.10;67.40;;;;;;5089283;28;19927;-68
2023/09/28 05:53:41;;;;;;;;;;;21.10;67.50;;;;;;5097891;28;19930;-68
2023/09/28 05:56:07;;;;;;;;;;;21.10;67.60;;;;;;5102103;28;20383;-69
2023/09/28 05:58:33;;;;;;;;;;;21.20;67.60;;;;;;5090001;28;19935;-70
2023/09/28 06:01:06;;;;;;;;;;;21.10;67.70;;;;;;5088877;28;19920;-73
2023/09/28 06:03:31;;;;;;;;;;;21.10;67.70;;;;;;5087710;28;20007;-70
2023/09/28 06:05:57;;;;;;;;;;;21.10;67.80;;;;;;5087105;28;20316;-70
2023/09/28 06:08:22;;;;;;;;;;;21.10;67.80;;;;;;5091892;28;19923;-73
2023/09/28 06:10:48;;;;;;;;;;;21.10;67.90;;;;;;5090071;28;20286;-70
2023/09/28 06:13:14;;;;;;;;;;;21.10;67.90;;;;;;5086166;28;19928;-72
2023/09/28 06:15:40;;;;;;;;;;;21.10;68.00;;;;;;5101974;28;19928;-73
2023/09/28 06:18:05;;;;;;;;;;;21.10;68.00;;;;;;5085873;28;19920;-74
2023/09/28 06:20:31;;;;;;;;;;;21.10;68.10;;;;;;5083099;28;19998;-70
2023/09/28 06:22:59;;;;;;;;;;;21.10;68.20;;;;;;5085550;28;20569;-73
2023/09/28 06:25:24;;;;;;;;;;;21.10;68.20;;;;;;5091490;28;19927;-70
2023/09/28 06:27:50;;;;;;;;;;;21.10;68.20;;;;;;5092000;28;19921;-70
2023/09/28 06:30:15;;;;;;;;;;;21.10;68.10;;;;;;5105856;28;19920;-69
2023/09/28 06:32:41;;;;;;;;;;;21.20;68.10;;;;;;5105356;28;20031;-69
2023/09/28 06:35:08;;;;;;;;;;;21.20;67.90;;;;;;5099213;28;19939;-69
2023/09/28 06:37:34;;;;;;;;;;;21.20;67.80;;;;;;5075065;28;20366;-73
2023/09/28 06:39:59;;;;;;;;;;;21.20;67.80;;;;;;5098891;27;20004;-70
2023/09/28 06:42:25;;;;;;;;;;;21.30;67.80;;;;;;5096329;27;20318;-69
2023/09/28 06:44:50;;;;;;;;;;;21.30;67.80;;;;;;5109028;27;19927;-69
2023/09/28 06:47:16;;;;;;;;;;;21.30;67.70;;;;;;5079111;27;20044;-69
2023/09/28 06:49:41;;;;;;;;;;;21.30;67.70;;;;;;5109246;27;19924;-70
2023/09/28 06:52:07;;;;;;;;;;;21.30;67.70;;;;;;5080597;28;19928;-69
2023/09/28 06:54:33;;;;;;;;;;;21.30;67.70;;;;;;5083692;28;19924;-66
2023/09/28 06:56:58;;;;;;;;;;;21.30;67.70;;;;;;5080684;27;19955;-69
2023/09/28 06:59:24;;;;;;;;;;;21.30;67.60;;;;;;5086725;27;20022;-68
2023/09/28 07:01:50;;;;;;;;;;;21.30;67.60;;;;;;5075011;27;19920;-69
2023/09/28 07:04:15;;;;;;;;;;;21.40;67.60;;;;;;5084304;27;19920;-68
2023/09/28 07:06:41;;;;;;;;;;;21.40;67.70;;;;;;5087105;27;19927;-68
2023/09/28 07:09:07;;;;;;;;;;;21.40;67.70;;;;;;5083414;28;19934;-71
2023/09/28 07:11:32;;;;;;;;;;;21.30;67.80;;;;;;5081151;27;19919;-75
2023/09/28 07:13:58;;;;;;;;;;;21.30;67.80;;;;;;5080854;28;19927;-71
2023/09/28 07:16:23;;;;;;;;;;;21.30;67.90;;;;;;5084285;27;19949;-71
2023/09/28 07:18:49;;;;;;;;;;;21.30;67.80;;;;;;5100931;27;19923;-71
2023/09/28 07:21:14;;;;;;;;;;;21.30;67.90;;;;;;5084507;27;20494;-72
2023/09/28 07:23:41;;;;;;;;;;;21.30;67.90;;;;;;5076473;27;19924;-70
2023/09/28 07:26:22;;;;;;;;;;;21.30;67.90;;;;;;5086585;28;19928;-72
2023/09/28 07:28:47;;;;;;;;;;;21.30;67.90;;;;;;5088931;27;20738;-72
2023/09/28 07:31:14;;;;;;;;;;;21.20;67.90;;;;;;5078254;28;20028;-71
2023/09/28 07:33:41;;;;;;;;;;;21.20;67.90;;;;;;5079687;28;19988;-75
2023/09/28 07:36:07;;;;;;;;;;;21.20;68.00;;;;;;5077635;28;19956;-72
2023/09/28 07:38:33;;;;;;;;;;;21.20;68.00;;;;;;5077584;27;19943;-75
2023/09/28 07:40:59;;;;;;;;;;;21.20;68.00;;;;;;5078817;28;20287;-73
2023/09/28 07:43:24;;;;;;;;;;;21.20;68.10;;;;;;5077753;27;19963;-72
2023/09/28 07:45:50;;;;;;;;;;;21.10;68.00;;;;;;5104296;27;19978;-74
2023/09/28 07:48:15;;;;;;;;;;;21.10;68.10;;;;;;5081543;28;19973;-72
2023/09/28 07:50:41;;;;;;;;;;;21.10;68.20;;;;;;5080396;27;19924;-72
2023/09/28 07:53:06;;;;;;;;;;;21.10;68.40;;;;;;5071755;27;19935;-70
2023/09/28 07:55:32;;;;;;;;;;;21.10;68.50;;;;;;5106292;27;19938;-72
2023/09/28 07:57:58;;;;;;;;;;;21.00;68.70;;;;;;5082888;27;19955;-73
2023/09/28 08:00:24;;;;;;;;;;;21.00;68.90;;;;;;5080805;27;19931;-74
2023/09/28 08:02:49;;;;;;;;;;;21.00;69.10;;;;;;5085266;27;19931;-69
2023/09/28 08:05:14;;;;;;;;;;;21.00;69.10;;;;;;5076874;28;19963;-79
2023/09/28 08:07:41;;;;;;;;;;;21.00;69.30;;;;;;5079970;27;19973;-69
2023/09/28 08:10:09;;;;;;;;;;;21.00;69.30;;;;;;5099264;27;19938;-67
2023/09/28 08:12:35;;;;;;;;;;;21.00;69.40;;;;;;5110175;27;20010;-74
2023/09/28 08:15:01;;;;;;;;;;;21.00;69.60;;;;;;5077130;28;19935;-68
2023/09/28 08:17:26;;;;;;;;;;;21.00;69.70;;;;;;5085464;28;19920;-71
2023/09/28 08:19:52;;;;;;;;;;;20.90;69.70;;;;;;5078059;27;19923;-69
2023/09/28 08:22:18;;;;;;;;;;;20.90;69.80;;;;;;5079560;28;19920;-75
2023/09/28 08:24:43;;;;;;;;;;;20.90;69.80;;;;;;5071282;27;19936;-68
2023/09/28 08:27:09;;;;;;;;;;;20.90;69.90;;;;;;5095707;27;20363;-72
2023/09/28 08:29:35;;;;;;;;;;;20.90;70.00;;;;;;5102274;27;20005;-70
2023/09/28 08:32:01;;;;;;;;;;;20.90;70.10;;;;;;5082530;27;21862;-74
2023/09/28 08:34:27;;;;;;;;;;;20.90;70.10;;;;;;5075762;28;19924;-72
2023/09/28 08:36:52;;;;;;;;;;;20.90;70.20;;;;;;5079151;28;20251;-68
2023/09/28 08:39:18;;;;;;;;;;;20.80;70.20;;;;;;5082616;28;19980;-68
2023/09/28 08:41:46;;;;;;;;;;;20.80;70.20;;;;;;5080545;28;19931;-68
2023/09/28 08:44:12;;;;;;;;;;;20.80;70.20;;;;;;5082838;28;19923;-68
2023/09/28 08:46:39;;;;;;;;;;;20.80;70.20;;;;;;5081035;27;19923;-75
2023/09/28 08:49:05;;;;;;;;;;;20.80;70.30;;;;;;5079099;28;19959;-76
2023/09/28 08:51:31;;;;;;;;;;;20.80;70.20;;;;;;5077300;28;19970;-69
2023/09/28 08:53:58;;;;;;;;;;;20.70;70.20;;;;;;5081210;28;19930;-68
2023/09/28 08:56:25;;;;;;;;;;;20.70;70.20;;;;;;5094402;27;19927;-74
2023/09/28 08:58:51;;;;;;;;;;;20.70;70.40;;;;;;5075879;28;20036;-70
2023/09/28 09:01:17;;;;;;;;;;;20.80;70.60;;;;;;5096925;27;20006;-74
2023/09/28 09:03:43;;;;;;;;;;;20.80;70.80;;;;;;5078434;28;19924;-76
2023/09/28 09:06:09;;;;;;;;;;;20.80;70.80;;;;;;5073082;28;19932;-68
2023/09/28 09:08:35;;;;;;;;;;;20.80;70.70;;;;;;5107200;27;19924;-78
2023/09/28 09:11:01;;;;;;;;;;;20.80;70.80;;;;;;5078614;27;20444;-69
2023/09/28 09:13:26;;;;;;;;;;;20.80;70.70;;;;;;5074416;28;20007;-77
2023/09/28 09:15:52;;;;;;;;;;;20.80;70.80;;;;;;5097920;27;20310;-68
2023/09/28 09:18:18;;;;;;;;;;;20.80;70.70;;;;;;5074904;28;19920;-69
2023/09/28 09:20:46;;;;;;;;;;;20.80;70.90;;;;;;5078560;28;19924;-67
2023/09/28 09:23:12;;;;;;;;;;;20.90;70.90;;;;;;5082038;27;19980;-67
2023/09/28 09:25:39;;;;;;;;;;;20.90;71.00;;;;;;5064543;28;19939;-73
2023/09/28 09:28:05;;;;;;;;;;;20.90;71.00;;;;;;5076805;28;19948;-70
2023/09/28 09:30:35;;;;;;;;;;;20.90;71.00;;;;;;5077643;28;19924;-69
2023/09/28 09:33:01;;;;;;;;;;;20.90;70.90;;;;;;5077596;28;19967;-70
2023/09/28 09:35:28;;;;;;;;;;;20.90;70.90;;;;;;5073742;28;19928;-73
2023/09/28 09:37:55;;;;;;;;;;;20.90;70.80;;;;;;5072088;28;19924;-69
2023/09/28 09:40:21;;;;;;;;;;;20.90;70.80;;;;;;5102214;28;19928;-68
2023/09/28 09:42:46;;;;;;;;;;;20.90;70.80;;;;;;5073891;28;19926;-72
2023/09/28 09:45:12;;;;;;;;;;;21.00;70.90;;;;;;5071600;28;20506;-81
2023/09/28 09:47:46;;;;;;;;;;;21.00;71.80;;;;;;5071334;28;20555;-71
2023/09/28 09:50:12;;;;;;;;;;;21.00;70.90;;;;;;5070369;28;20446;-71
2023/09/28 09:52:37;;;;;;;;;;;21.00;71.00;;;;;;5077850;28;20046;-78
2023/09/28 09:55:04;;;;;;;;;;;21.00;71.00;;;;;;5070010;28;20447;-74
2023/09/28 09:57:32;;;;;;;;;;;21.00;70.90;;;;;;5074211;28;19975;-81
2023/09/28 09:59:58;;;;;;;;;;;21.00;71.00;;;;;;5075693;28;19924;-75
2023/09/28 10:02:25;;;;;;;;;;;21.10;70.90;;;;;;5081408;28;19965;-72
2023/09/28 10:04:54;;;;;;;;;;;21.10;70.90;;;;;;5079059;27;19924;-79
2023/09/28 10:07:22;;;;;;;;;;;21.10;70.90;;;;;;5075383;28;19977;-71
2023/09/28 10:09:47;;;;;;;;;;;21.10;70.80;;;;;;5072750;28;19924;-71
2023/09/28 10:12:14;;;;;;;;;;;21.10;70.80;;;;;;5081546;28;19928;-71
2023/09/28 10:14:41;;;;;;;;;;;21.10;70.80;;;;;;5074332;27;19963;-71
2023/09/28 10:17:07;;;;;;;;;;;21.10;70.90;;;;;;5081552;27;19932;-71
2023/09/28 10:19:33;;;;;;;;;;;21.10;70.90;;;;;;5086938;27;19924;-78
2023/09/28 10:21:59;;;;;;;;;;;21.10;70.90;;;;;;5104286;27;19926;-71
2023/09/28 10:24:30;;;;;;;;;;;21.10;70.90;;;;;;5088995;27;20018;-76
2023/09/28 10:26:56;;;;;;;;;;;21.10;70.90;;;;;;5094194;28;19924;-75
2023/09/28 10:29:23;;;;;;;;;;;21.10;70.90;;;;;;5105615;27;19981;-68
2023/09/28 10:31:51;;;;;;;;;;;21.10;70.90;;;;;;5105373;27;19926;-75
2023/09/28 10:34:19;;;;;;;;;;;21.10;71.00;;;;;;5089002;27;19924;-81
2023/09/28 10:37:07;;;;;;;;;;;21.10;71.00;;;;;;5086317;27;19973;-73
2023/09/28 10:39:33;;;;;;;;;;;21.10;70.90;;;;;;5105496;27;20026;-81
2023/09/28 10:42:10;;;;;;;;;;;21.10;70.80;;;;;;5085413;27;20766;-73
2023/09/28 10:44:44;;;;;;;;;;;21.10;70.60;;;;;;5098154;27;19920;-72
2023/09/28 10:47:09;;;;;;;;;;;21.10;70.50;;;;;;5074960;27;20026;-75
2023/09/28 10:49:35;;;;;;;;;;;21.10;70.40;;;;;;5075918;28;20649;-77
2023/09/28 10:52:00;;;;;;;;;;;21.20;70.40;;;;;;5094140;27;19976;-73
2023/09/28 10:54:26;;;;;;;;;;;21.10;70.40;;;;;;5074637;28;20046;-72
2023/09/28 10:56:51;;;;;;;;;;;21.20;70.40;;;;;;5075677;27;19928;-72
2023/09/28 10:59:17;;;;;;;;;;;21.20;70.40;;;;;;5079034;27;19933;-74
2023/09/28 11:01:43;;;;;;;;;;;21.20;70.40;;;;;;5077755;28;19927;-73
2023/09/28 11:04:09;;;;;;;;;;;21.20;70.40;;;;;;5079024;27;19942;-72
2023/09/28 11:06:35;;;;;;;;;;;21.20;70.30;;;;;;5080903;28;20601;-70
2023/09/28 11:09:01;;;;;;;;;;;21.30;71.10;;;;;;5097402;27;19927;-70
2023/09/28 11:11:27;;;;;;;;;;;21.30;70.40;;;;;;5092844;28;19923;-71
2023/09/28 11:13:56;;;;;;;;;;;21.20;71.10;;;;;;5076129;28;20602;-69
2023/09/28 11:16:22;;;;;;;;;;;21.30;70.40;;;;;;5074987;27;19923;-70
2023/09/28 11:18:48;;;;;;;;;;;21.20;70.20;;;;;;5093803;27;20380;-70
2023/09/28 11:21:14;;;;;;;;;;;21.20;70.10;;;;;;5074307;28;19963;-72
2023/09/28 11:23:40;;;;;;;;;;;21.30;70.30;;;;;;5090889;27;20360;-72
2023/09/28 11:26:07;;;;;;;;;;;21.30;70.30;;;;;;5091823;27;19923;-72
2023/09/28 11:28:33;;;;;;;;;;;21.30;70.30;;;;;;5075768;27;19924;-71
2023/09/28 11:31:08;;;;;;;;;;;21.30;70.30;;;;;;5071159;28;20446;-72
2023/09/28 11:33:34;;;;;;;;;;;21.30;70.20;;;;;;5078356;27;19927;-71
2023/09/28 11:36:00;;;;;;;;;;;21.30;70.30;;;;;;5094899;27;19930;-71
2023/09/28 11:38:25;;;;;;;;;;;21.30;70.20;;;;;;5077381;27;19928;-71
2023/09/28 11:40:52;;;;;;;;;;;21.30;70.30;;;;;;5096545;27;20386;-70
2023/09/28 11:43:18;;;;;;;;;;;21.40;70.40;;;;;;5076060;27;19958;-72
2023/09/28 11:45:47;;;;;;;;;;;21.40;70.40;;;;;;5075387;28;19924;-75
2023/09/28 11:48:16;;;;;;;;;;;21.40;70.30;;;;;;5070030;28;20394;-72
2023/09/28 11:50:41;;;;;;;;;;;21.40;70.30;;;;;;5101854;27;19939;-70
2023/09/28 11:53:08;;;;;;;;;;;21.40;70.20;;;;;;5081001;28;19927;-71
2023/09/28 11:55:34;;;;;;;;;;;21.40;70.20;;;;;;5081806;27;19924;-72
2023/09/28 11:58:01;;;;;;;;;;;21.50;70.20;;;;;;5075057;28;19923;-69
2023/09/28 12:00:26;;;;;;;;;;;21.50;70.20;;;;;;5072777;28;19930;-70
2023/09/28 12:02:52;;;;;;;;;;;21.50;70.10;;;;;;5097686;27;19935;-70
2023/09/28 12:05:18;;;;;;;;;;;21.40;70.10;;;;;;5093376;27;19927;-71
2023/09/28 12:07:43;;;;;;;;;;;21.40;70.10;;;;;;5081534;27;19935;-70
2023/09/28 12:10:11;;;;;;;;;;;21.40;70.10;;;;;;5080091;28;19928;-70
2023/09/28 12:12:38;;;;;;;;;;;21.40;70.10;;;;;;5092947;27;19940;-70
2023/09/28 12:15:07;;;;;;;;;;;21.40;70.10;;;;;;5101475;27;20458;-70
2023/09/28 12:17:33;;;;;;;;;;;21.40;70.20;;;;;;5095400;28;19947;-71
2023/09/28 12:19:59;;;;;;;;;;;21.40;70.20;;;;;;5092896;27;19977;-72
2023/09/28 12:22:24;;;;;;;;;;;21.40;70.30;;;;;;5103841;27;21640;-71
2023/09/28 12:24:50;;;;;;;;;;;21.40;70.20;;;;;;5075364;28;19958;-71
2023/09/28 12:27:17;;;;;;;;;;;21.40;70.20;;;;;;5088587;27;19928;-68
2023/09/28 12:29:43;;;;;;;;;;;21.40;70.30;;;;;;5063015;28;19928;-68
2023/09/28 12:32:09;;;;;;;;;;;21.40;70.40;;;;;;5074671;27;19933;-69
2023/09/28 12:34:34;;;;;;;;;;;21.40;70.40;;;;;;5082495;27;20951;-75
2023/09/28 12:37:00;;;;;;;;;;;21.40;70.50;;;;;;5071448;27;19924;-70
2023/09/28 12:39:25;;;;;;;;;;;21.40;70.50;;;;;;5091329;27;19935;-74
2023/09/28 12:41:52;;;;;;;;;;;21.40;70.60;;;;;;5094498;27;19935;-69
2023/09/28 12:44:20;;;;;;;;;;;21.40;70.40;;;;;;5087488;27;19943;-69
2023/09/28 12:46:46;;;;;;;;;;;21.40;70.50;;;;;;5093598;27;19919;-69
2023/09/28 12:49:15;;;;;;;;;;;21.50;70.60;;;;;;5076332;28;20492;-69
2023/09/28 12:51:44;;;;;;;;;;;21.50;70.60;;;;;;5076826;28;19924;-69
2023/09/28 12:54:12;;;;;;;;;;;21.40;70.60;;;;;;5091480;27;20344;-69
2023/09/28 12:56:38;;;;;;;;;;;21.50;70.60;;;;;;5088719;28;19928;-69
2023/09/28 12:59:03;;;;;;;;;;;21.40;70.50;;;;;;5098818;27;19928;-69
2023/09/28 13:01:29;;;;;;;;;;;21.50;70.60;;;;;;5091336;28;19920;-71
2023/09/28 13:03:55;;;;;;;;;;;21.50;70.70;;;;;;5081054;28;19920;-71
2023/09/28 13:06:20;;;;;;;;;;;21.50;70.50;;;;;;5082340;28;19919;-71
2023/09/28 13:08:46;;;;;;;;;;;21.50;70.40;;;;;;5122857;27;20467;-70
2023/09/28 13:11:12;;;;;;;;;;;21.50;70.30;;;;;;5106404;27;19926;-70
2023/09/28 13:13:40;;;;;;;;;;;21.50;71.00;;;;;;5111973;27;19959;-71
2023/09/28 13:16:05;;;;;;;;;;;21.50;70.20;;;;;;5086566;28;19928;-71
2023/09/28 13:18:32;;;;;;;;;;;21.50;70.00;;;;;;5083874;27;19919;-70
2023/09/28 13:20:57;;;;;;;;;;;21.50;70.10;;;;;;5103796;27;20608;-71
2023/09/28 13:23:24;;;;;;;;;;;21.50;70.20;;;;;;5089591;28;20057;-71
2023/09/28 13:25:49;;;;;;;;;;;21.50;70.20;;;;;;5108079;28;19953;-75
2023/09/28 13:28:16;;;;;;;;;;;21.50;70.00;;;;;;5086137;28;19932;-69
2023/09/28 13:30:42;;;;;;;;;;;21.50;70.00;;;;;;5106456;28;19919;-69
2023/09/28 13:33:09;;;;;;;;;;;21.50;70.00;;;;;;5109209;27;19920;-70
2023/09/28 13:35:35;;;;;;;;;;;21.50;70.10;;;;;;5107461;27;19947;-69
2023/09/28 13:38:02;;;;;;;;;;;21.50;70.10;;;;;;5105211;28;19919;-69
2023/09/28 13:40:33;;;;;;;;;;;21.50;70.20;;;;;;5091390;28;20294;-70
2023/09/28 13:43:05;;;;;;;;;;;21.50;70.20;;;;;;5113288;28;19926;-69
2023/09/28 13:45:31;;;;;;;;;;;21.50;70.30;;;;;;5096401;28;19945;-70
2023/09/28 13:47:58;;;;;;;;;;;21.50;70.40;;;;;;5090014;28;20438;-70
2023/09/28 13:50:27;;;;;;;;;;;21.50;70.30;;;;;;5091011;28;19932;-70
2023/09/28 13:52:53;;;;;;;;;;;21.50;70.30;;;;;;5093005;28;19972;-71
2023/09/28 13:55:20;;;;;;;;;;;21.50;70.30;;;;;;5110228;28;19924;-71
2023/09/28 13:57:47;;;;;;;;;;;21.50;70.30;;;;;;5090405;28;20097;-70
2023/09/28 14:00:29;;;;;;;;;;;21.50;70.30;;;;;;5095987;28;19927;-71
2023/09/28 14:02:55;;;;;;;;;;;21.60;70.40;;;;;;5091782;28;19938;-70
2023/09/28 14:05:20;;;;;;;;;;;21.60;70.30;;;;;;5093080;28;19920;-70
2023/09/28 14:07:46;;;;;;;;;;;21.60;70.40;;;;;;5101561;28;20173;-69
2023/09/28 14:10:12;;;;;;;;;;;21.50;70.20;;;;;;5115497;28;19965;-70
2023/09/28 14:12:38;;;;;;;;;;;21.50;70.10;;;;;;5114012;28;19927;-70
2023/09/28 14:15:06;;;;;;;;;;;21.50;70.10;;;;;;5089840;28;19927;-70